sensor_id;sensor_type;location;lat;lon;timestamp;pressure;altitude;pressure_sealevel;temperature;humidity
59170;BME280;52474;52.236;5.114;2023-05-11T00:02:04;101520.88;;;12.24;100.00
59170;BME280;52474;52.236;5.114;2023-05-11T00:04:30;101503.28;;;12.12;100.00
59170;BME280;52474;52.236;5.114;2023-05-11T00:06:55;101517.75;;;12.19;100.00
59170;BME280;52474;52.236;5.114;2023-05-11T00:09:21;101512.69;;;12.16;100.00
59170;BME280;52474;52.236;5.114;2023-05-11T00:11:47;101529.66;;;12.24;100.00
59170;BME280;52474;52.236;5.114;2023-05-11T00:14:12;101518.94;;;12.26;100.00
59170;BME280;52474;52.236;5.114;2023-05-11T00:16:38;101504.72;;;12.16;100.00
59170;BME280;52474;52.236;5.114;2023-05-11T00:19:04;101504.94;;;12.13;100.00
59170;BME280;52474;52.236;5.114;2023-05-11T00:21:29;101515.28;;;12.27;100.00
59170;BME280;52474;52.236;5.114;2023-05-11T00:23:55;101513.75;;;12.24;100.00
59170;BME280;52474;52.236;5.114;2023-05-11T00:26:21;101516.41;;;12.24;100.00
59170;BME280;52474;52.236;5.114;2023-05-11T00:28:47;101482.66;;;12.04;100.00
59170;BME280;52474;52.236;5.114;2023-05-11T00:31:12;101492.69;;;12.00;100.00
59170;BME280;52474;52.236;5.114;2023-05-11T00:33:38;101520.03;;;12.12;100.00
59170;BME280;52474;52.236;5.114;2023-05-11T00:36:04;101483.75;;;12.01;100.00
59170;BME280;52474;52.236;5.114;2023-05-11T00:38:30;101493.13;;;12.06;100.00
59170;BME280;52474;52.236;5.114;2023-05-11T00:40:56;101464.13;;;11.81;100.00
59170;BME280;52474;52.236;5.114;2023-05-11T00:43:22;101492.94;;;11.97;100.00
59170;BME280;52474;52.236;5.114;2023-05-11T00:45:48;101491.47;;;12.05;100.00
59170;BME280;52474;52.236;5.114;2023-05-11T00:48:15;101498.09;;;12.10;100.00
59170;BME280;52474;52.236;5.114;2023-05-11T00:50:41;101499.44;;;12.05;100.00
59170;BME280;52474;52.236;5.114;2023-05-11T00:53:07;101494.38;;;12.01;100.00
59170;BME280;52474;52.236;5.114;2023-05-11T00:55:33;101505.47;;;11.95;100.00
59170;BME280;52474;52.236;5.114;2023-05-11T00:58:01;101506.94;;;11.99;100.00
59170;BME280;52474;52.236;5.114;2023-05-11T01:00:30;101504.38;;;11.98;100.00
59170;BME280;52474;52.236;5.114;2023-05-11T01:02:55;101511.63;;;11.96;100.00
59170;BME280;52474;52.236;5.114;2023-05-11T01:05:25;101519.47;;;11.97;100.00
59170;BME280;52474;52.236;5.114;2023-05-11T01:08:02;101515.50;;;11.92;100.00
59170;BME280;52474;52.236;5.114;2023-05-11T01:10:41;101516.34;;;11.92;100.00
59170;BME280;52474;52.236;5.114;2023-05-11T01:13:32;101500.78;;;11.88;100.00
59170;BME280;52474;52.236;5.114;2023-05-11T01:16:03;101526.25;;;12.01;100.00
59170;BME280;52474;52.236;5.114;2023-05-11T01:18:59;101523.34;;;11.93;100.00
59170;BME280;52474;52.236;5.114;2023-05-11T01:21:29;101522.75;;;11.90;100.00
59170;BME280;52474;52.236;5.114;2023-05-11T01:32:26;101503.81;;;11.94;100.00
59170;BME280;52474;52.236;5.114;2023-05-11T01:34:59;101517.41;;;12.01;100.00
59170;BME280;52474;52.236;5.114;2023-05-11T01:37:30;101504.03;;;12.02;100.00
59170;BME280;52474;52.236;5.114;2023-05-11T01:40:00;101513.44;;;11.95;100.00
59170;BME280;52474;52.236;5.114;2023-05-11T01:42:30;101484.88;;;11.88;100.00
59170;BME280;52474;52.236;5.114;2023-05-11T01:44:58;101510.94;;;11.94;100.00
59170;BME280;52474;52.236;5.114;2023-05-11T01:47:27;101515.16;;;11.96;100.00
59170;BME280;52474;52.236;5.114;2023-05-11T01:49:55;101504.84;;;12.03;100.00
59170;BME280;52474;52.236;5.114;2023-05-11T01:52:24;101498.75;;;11.91;100.00
59170;BME280;52474;52.236;5.114;2023-05-11T01:54:51;101507.19;;;11.96;100.00
59170;BME280;52474;52.236;5.114;2023-05-11T01:57:20;101516.09;;;12.07;100.00
59170;BME280;52474;52.236;5.114;2023-05-11T01:59:47;101487.53;;;11.88;100.00
59170;BME280;52474;52.236;5.114;2023-05-11T02:02:17;101505.47;;;11.95;100.00
59170;BME280;52474;52.236;5.114;2023-05-11T02:04:44;101500.88;;;11.86;100.00
59170;BME280;52474;52.236;5.114;2023-05-11T02:07:12;101490.03;;;11.78;100.00
59170;BME280;52474;52.236;5.114;2023-05-11T02:09:39;101525.41;;;11.90;100.00
59170;BME280;52474;52.236;5.114;2023-05-11T02:12:07;101525.28;;;11.91;100.00
59170;BME280;52474;52.236;5.114;2023-05-11T02:14:35;101523.47;;;11.92;100.00
59170;BME280;52474;52.236;5.114;2023-05-11T02:17:03;101520.09;;;11.90;100.00
59170;BME280;52474;52.236;5.114;2023-05-11T02:19:32;101536.50;;;11.95;100.00
59170;BME280;52474;52.236;5.114;2023-05-11T02:21:59;101528.78;;;11.92;100.00
59170;BME280;52474;52.236;5.114;2023-05-11T02:24:26;101529.63;;;11.92;100.00
59170;BME280;52474;52.236;5.114;2023-05-11T02:26:54;101533.47;;;11.99;100.00
59170;BME280;52474;52.236;5.114;2023-05-11T02:29:21;101519.25;;;11.89;100.00
59170;BME280;52474;52.236;5.114;2023-05-11T02:31:48;101521.78;;;11.91;100.00
59170;BME280;52474;52.236;5.114;2023-05-11T02:34:43;101518.50;;;11.98;100.00
59170;BME280;52474;52.236;5.114;2023-05-11T02:37:17;101532.00;;;12.07;100.00
59170;BME280;52474;52.236;5.114;2023-05-11T02:39:47;101529.84;;;12.00;100.00
59170;BME280;52474;52.236;5.114;2023-05-11T02:42:20;101532.13;;;12.05;100.00
59170;BME280;52474;52.236;5.114;2023-05-11T02:45:07;101532.13;;;12.05;100.00
59170;BME280;52474;52.236;5.114;2023-05-11T02:47:46;101537.19;;;12.08;100.00
59170;BME280;52474;52.236;5.114;2023-05-11T02:50:18;101533.94;;;12.05;100.00
59170;BME280;52474;52.236;5.114;2023-05-11T02:52:47;101532.50;;;12.00;100.00
59170;BME280;52474;52.236;5.114;2023-05-11T02:55:15;101500.53;;;11.79;100.00
59170;BME280;52474;52.236;5.114;2023-05-11T02:57:42;101479.09;;;11.60;100.00
59170;BME280;52474;52.236;5.114;2023-05-11T03:00:09;101516.78;;;11.86;100.00
59170;BME280;52474;52.236;5.114;2023-05-11T03:02:36;101537.69;;;12.02;100.00
59170;BME280;52474;52.236;5.114;2023-05-11T03:05:02;101529.00;;;12.00;100.00
59170;BME280;52474;52.236;5.114;2023-05-11T03:07:30;101518.75;;;11.95;100.00
59170;BME280;52474;52.236;5.114;2023-05-11T03:09:56;101531.06;;;11.96;100.00
59170;BME280;52474;52.236;5.114;2023-05-11T03:12:22;101528.91;;;11.90;100.00
59170;BME280;52474;52.236;5.114;2023-05-11T03:14:50;101531.19;;;11.95;100.00
59170;BME280;52474;52.236;5.114;2023-05-11T03:17:17;101522.50;;;11.93;100.00
59170;BME280;52474;52.236;5.114;2023-05-11T03:19:44;101523.22;;;11.95;100.00
59170;BME280;52474;52.236;5.114;2023-05-11T03:22:12;101513.09;;;11.89;100.00
59170;BME280;52474;52.236;5.114;2023-05-11T03:24:38;101537.44;;;12.05;100.00
59170;BME280;52474;52.236;5.114;2023-05-11T03:27:06;101524.16;;;12.05;100.00
59170;BME280;52474;52.236;5.114;2023-05-11T03:29:33;101510.41;;;12.00;100.00
59170;BME280;52474;52.236;5.114;2023-05-11T03:32:03;101524.63;;;12.10;100.00
59170;BME280;52474;52.236;5.114;2023-05-11T03:34:33;101532.50;;;12.12;100.00
59170;BME280;52474;52.236;5.114;2023-05-11T03:36:59;101528.00;;;12.12;100.00
59170;BME280;52474;52.236;5.114;2023-05-11T03:39:26;101528.84;;;12.13;100.00
59170;BME280;52474;52.236;5.114;2023-05-11T03:41:55;101535.00;;;12.13;100.00
59170;BME280;52474;52.236;5.114;2023-05-11T03:44:22;101521.34;;;12.18;100.00
59170;BME280;52474;52.236;5.114;2023-05-11T03:46:51;101529.94;;;12.21;100.00
59170;BME280;52474;52.236;5.114;2023-05-11T03:49:18;101502.56;;;12.10;100.00
59170;BME280;52474;52.236;5.114;2023-05-11T03:51:44;101512.69;;;12.16;100.00
59170;BME280;52474;52.236;5.114;2023-05-11T03:54:10;101505.59;;;12.05;100.00
59170;BME280;52474;52.236;5.114;2023-05-11T03:56:37;101510.06;;;12.05;100.00
59170;BME280;52474;52.236;5.114;2023-05-11T03:59:03;101517.91;;;12.06;100.00
59170;BME280;52474;52.236;5.114;2023-05-11T04:01:30;101525.09;;;12.15;100.00
59170;BME280;52474;52.236;5.114;2023-05-11T04:03:56;101490.66;;;11.93;100.00
59170;BME280;52474;52.236;5.114;2023-05-11T04:06:22;101501.72;;;11.98;100.00
59170;BME280;52474;52.236;5.114;2023-05-11T04:08:57;101506.31;;;12.07;100.00
59170;BME280;52474;52.236;5.114;2023-05-11T04:11:22;101514.84;;;12.11;100.00
59170;BME280;52474;52.236;5.114;2023-05-11T04:13:48;101512.59;;;12.06;100.00
59170;BME280;52474;52.236;5.114;2023-05-11T04:16:14;101490.66;;;11.93;100.00
59170;BME280;52474;52.236;5.114;2023-05-11T04:18:40;101502.34;;;12.01;100.00
59170;BME280;52474;52.236;5.114;2023-05-11T04:21:05;101495.22;;;11.91;100.00
59170;BME280;52474;52.236;5.114;2023-05-11T04:23:31;101513.81;;;12.02;100.00
59170;BME280;52474;52.236;5.114;2023-05-11T04:25:57;101514.28;;;12.07;100.00
59170;BME280;52474;52.236;5.114;2023-05-11T04:28:23;101507.75;;;12.00;100.00
59170;BME280;52474;52.236;5.114;2023-05-11T04:30:56;101521.41;;;12.07;100.00
59170;BME280;52474;52.236;5.114;2023-05-11T04:33:22;101509.31;;;12.02;100.00
59170;BME280;52474;52.236;5.114;2023-05-11T04:35:53;101521.03;;;12.11;100.00
59170;BME280;52474;52.236;5.114;2023-05-11T04:38:19;101517.03;;;12.06;100.00
59170;BME280;52474;52.236;5.114;2023-05-11T04:40:46;101516.19;;;12.05;100.00
59170;BME280;52474;52.236;5.114;2023-05-11T04:43:14;101527.91;;;12.14;100.00
59170;BME280;52474;52.236;5.114;2023-05-11T04:45:40;101528.38;;;12.19;100.00
59170;BME280;52474;52.236;5.114;2023-05-11T04:48:06;101532.97;;;12.17;100.00
59170;BME280;52474;52.236;5.114;2023-05-11T04:50:32;101529.94;;;12.21;100.00
59170;BME280;52474;52.236;5.114;2023-05-11T04:52:58;101517.03;;;12.17;100.00
59170;BME280;52474;52.236;5.114;2023-05-11T04:55:23;101535.34;;;12.20;100.00
59170;BME280;52474;52.236;5.114;2023-05-11T04:57:51;101542.47;;;12.19;100.00
59170;BME280;52474;52.236;5.114;2023-05-11T05:00:17;101524.88;;;12.07;100.00
59170;BME280;52474;52.236;5.114;2023-05-11T05:02:43;101539.00;;;12.19;100.00
59170;BME280;52474;52.236;5.114;2023-05-11T05:05:08;101547.44;;;12.24;100.00
59170;BME280;52474;52.236;5.114;2023-05-11T05:07:34;101545.22;;;12.29;100.00
59170;BME280;52474;52.236;5.114;2023-05-11T05:10:00;101544.03;;;12.22;100.00
59170;BME280;52474;52.236;5.114;2023-05-11T05:12:28;101554.19;;;12.28;100.00
59170;BME280;52474;52.236;5.114;2023-05-11T05:14:54;101553.19;;;12.29;100.00
59170;BME280;52474;52.236;5.114;2023-05-11T05:17:19;101555.03;;;12.29;100.00
59170;BME280;52474;52.236;5.114;2023-05-11T05:19:45;101553.94;;;12.31;100.00
59170;BME280;52474;52.236;5.114;2023-05-11T05:22:11;101561.06;;;12.31;100.00
59170;BME280;52474;52.236;5.114;2023-05-11T05:24:37;101563.56;;;12.32;100.00
59170;BME280;52474;52.236;5.114;2023-05-11T05:27:03;101545.13;;;12.31;100.00
59170;BME280;52474;52.236;5.114;2023-05-11T05:29:28;101539.28;;;12.37;100.00
59170;BME280;52474;52.236;5.114;2023-05-11T05:31:55;101544.81;;;12.45;100.00
59170;BME280;52474;52.236;5.114;2023-05-11T05:34:21;101564.59;;;12.52;100.00
59170;BME280;52474;52.236;5.114;2023-05-11T05:36:47;101576.00;;;12.43;100.00
59170;BME280;52474;52.236;5.114;2023-05-11T05:39:13;101575.38;;;12.51;100.00
59170;BME280;52474;52.236;5.114;2023-05-11T05:41:39;101553.19;;;12.40;100.00
59170;BME280;52474;52.236;5.114;2023-05-11T05:44:07;101545.06;;;12.42;100.00
59170;BME280;52474;52.236;5.114;2023-05-11T05:46:33;101575.66;;;12.68;100.00
59170;BME280;52474;52.236;5.114;2023-05-11T05:48:59;101558.06;;;12.56;100.00
59170;BME280;52474;52.236;5.114;2023-05-11T05:51:25;101568.72;;;12.77;100.00
59170;BME280;52474;52.236;5.114;2023-05-11T05:53:51;101528.00;;;12.56;100.00
59170;BME280;52474;52.236;5.114;2023-05-11T05:56:16;101584.25;;;12.93;100.00
59170;BME280;52474;52.236;5.114;2023-05-11T05:58:45;101586.31;;;12.89;100.00
59170;BME280;52474;52.236;5.114;2023-05-11T06:01:14;101585.28;;;12.81;100.00
59170;BME280;52474;52.236;5.114;2023-05-11T06:03:40;101602.66;;;12.85;100.00
59170;BME280;52474;52.236;5.114;2023-05-11T06:06:06;101578.59;;;12.86;100.00
59170;BME280;52474;52.236;5.114;2023-05-11T06:08:32;101590.47;;;13.03;100.00
59170;BME280;52474;52.236;5.114;2023-05-11T06:11:00;101604.75;;;13.23;100.00
59170;BME280;52474;52.236;5.114;2023-05-11T06:13:26;101591.28;;;13.15;100.00
59170;BME280;52474;52.236;5.114;2023-05-11T06:15:52;101604.69;;;13.14;100.00
59170;BME280;52474;52.236;5.114;2023-05-11T06:18:24;101604.63;;;13.25;100.00
59170;BME280;52474;52.236;5.114;2023-05-11T06:20:50;101613.66;;;13.34;100.00
59170;BME280;52474;52.236;5.114;2023-05-11T06:23:17;101585.03;;;13.26;100.00
59170;BME280;52474;52.236;5.114;2023-05-11T06:25:43;101608.13;;;13.37;100.00
59170;BME280;52474;52.236;5.114;2023-05-11T06:28:09;101613.06;;;13.51;100.00
59170;BME280;52474;52.236;5.114;2023-05-11T06:30:36;101597.38;;;13.48;100.00
59170;BME280;52474;52.236;5.114;2023-05-11T06:33:04;101606.69;;;13.63;100.00
59170;BME280;52474;52.236;5.114;2023-05-11T06:35:30;101604.94;;;13.73;100.00
59170;BME280;52474;52.236;5.114;2023-05-11T06:37:56;101603.41;;;13.71;100.00
59170;BME280;52474;52.236;5.114;2023-05-11T06:40:22;101601.00;;;13.99;100.00
59170;BME280;52474;52.236;5.114;2023-05-11T06:42:50;101613.75;;;14.05;100.00
59170;BME280;52474;52.236;5.114;2023-05-11T06:45:17;101609.59;;;14.22;100.00
59170;BME280;52474;52.236;5.114;2023-05-11T06:47:42;101591.88;;;14.01;100.00
59170;BME280;52474;52.236;5.114;2023-05-11T06:50:08;101590.00;;;14.32;100.00
59170;BME280;52474;52.236;5.114;2023-05-11T06:52:36;101604.66;;;14.57;100.00
59170;BME280;52474;52.236;5.114;2023-05-11T06:55:02;101610.72;;;14.59;100.00
59170;BME280;52474;52.236;5.114;2023-05-11T06:57:29;101604.72;;;14.36;100.00
59170;BME280;52474;52.236;5.114;2023-05-11T06:59:55;101582.97;;;14.31;100.00
59170;BME280;52474;52.236;5.114;2023-05-11T07:02:20;101579.75;;;14.28;100.00
59170;BME280;52474;52.236;5.114;2023-05-11T07:04:46;101590.78;;;14.64;100.00
59170;BME280;52474;52.236;5.114;2023-05-11T07:07:12;101603.41;;;14.81;100.00
59170;BME280;52474;52.236;5.114;2023-05-11T07:09:37;101604.25;;;14.72;100.00
59170;BME280;52474;52.236;5.114;2023-05-11T07:12:04;101603.97;;;14.75;100.00
59170;BME280;52474;52.236;5.114;2023-05-11T07:14:29;101607.63;;;14.93;100.00
59170;BME280;52474;52.236;5.114;2023-05-11T07:16:55;101581.81;;;14.74;100.00
59170;BME280;52474;52.236;5.114;2023-05-11T07:19:21;101603.69;;;14.88;100.00
59170;BME280;52474;52.236;5.114;2023-05-11T07:21:47;101593.31;;;14.65;100.00
59170;BME280;52474;52.236;5.114;2023-05-11T07:24:13;101601.31;;;14.85;100.00
59170;BME280;52474;52.236;5.114;2023-05-11T07:26:38;101612.09;;;15.22;100.00
59170;BME280;52474;52.236;5.114;2023-05-11T07:29:04;101594.81;;;15.26;100.00
59170;BME280;52474;52.236;5.114;2023-05-11T07:31:30;101587.50;;;16.13;100.00
59170;BME280;52474;52.236;5.114;2023-05-11T07:33:56;101588.97;;;16.88;100.00
59170;BME280;52474;52.236;5.114;2023-05-11T07:36:22;101596.31;;;17.56;100.00
59170;BME280;52474;52.236;5.114;2023-05-11T07:38:48;101590.66;;;17.33;100.00
59170;BME280;52474;52.236;5.114;2023-05-11T07:41:14;101575.63;;;16.61;100.00
59170;BME280;52474;52.236;5.114;2023-05-11T07:43:39;101605.03;;;16.88;100.00
59170;BME280;52474;52.236;5.114;2023-05-11T07:46:05;101578.38;;;16.79;100.00
59170;BME280;52474;52.236;5.114;2023-05-11T07:48:31;101592.69;;;17.39;100.00
59170;BME280;52474;52.236;5.114;2023-05-11T07:50:57;101573.75;;;18.52;100.00
59170;BME280;52474;52.236;5.114;2023-05-11T07:53:23;101603.25;;;20.14;100.00
59170;BME280;52474;52.236;5.114;2023-05-11T07:55:48;101603.16;;;21.46;100.00
59170;BME280;52474;52.236;5.114;2023-05-11T07:58:14;101595.41;;;20.05;100.00
59170;BME280;52474;52.236;5.114;2023-05-11T08:00:40;101597.88;;;18.44;100.00
59170;BME280;52474;52.236;5.114;2023-05-11T08:03:06;101607.44;;;17.44;100.00
59170;BME280;52474;52.236;5.114;2023-05-11T08:05:32;101599.38;;;16.91;100.00
59170;BME280;52474;52.236;5.114;2023-05-11T08:08:02;101606.06;;;16.95;100.00
59170;BME280;52474;52.236;5.114;2023-05-11T08:10:28;101599.25;;;17.19;100.00
59170;BME280;52474;52.236;5.114;2023-05-11T08:12:54;101607.59;;;17.16;100.00
59170;BME280;52474;52.236;5.114;2023-05-11T08:15:20;101613.50;;;17.02;100.00
59170;BME280;52474;52.236;5.114;2023-05-11T08:17:46;101608.22;;;16.92;100.00
59170;BME280;52474;52.236;5.114;2023-05-11T08:20:12;101600.09;;;17.46;100.00
59170;BME280;52474;52.236;5.114;2023-05-11T08:22:40;101612.72;;;18.81;100.00
59170;BME280;52474;52.236;5.114;2023-05-11T08:25:06;101597.03;;;24.85;100.00
59170;BME280;52474;52.236;5.114;2023-05-11T08:27:32;101589.09;;;23.67;100.00
59170;BME280;52474;52.236;5.114;2023-05-11T08:30:01;101605.56;;;24.14;100.00
59170;BME280;52474;52.236;5.114;2023-05-11T08:32:27;101599.44;;;22.21;100.00
59170;BME280;52474;52.236;5.114;2023-05-11T08:34:57;101603.38;;;20.61;100.00
59170;BME280;52474;52.236;5.114;2023-05-11T08:37:25;101604.91;;;19.84;100.00
59170;BME280;52474;52.236;5.114;2023-05-11T08:39:51;101603.28;;;22.70;100.00
59170;BME280;52474;52.236;5.114;2023-05-11T08:42:17;101588.22;;;21.20;100.00
59170;BME280;52474;52.236;5.114;2023-05-11T08:44:46;101597.00;;;19.83;100.00
59170;BME280;52474;52.236;5.114;2023-05-11T08:47:14;101612.56;;;19.15;100.00
59170;BME280;52474;52.236;5.114;2023-05-11T08:49:40;101590.72;;;18.69;100.00
59170;BME280;52474;52.236;5.114;2023-05-11T08:52:06;101600.09;;;18.06;100.00
59170;BME280;52474;52.236;5.114;2023-05-11T08:54:35;101591.81;;;17.91;100.00
59170;BME280;52474;52.236;5.114;2023-05-11T08:57:01;101602.47;;;18.09;100.00
59170;BME280;52474;52.236;5.114;2023-05-11T08:59:28;101605.22;;;17.91;100.00
59170;BME280;52474;52.236;5.114;2023-05-11T09:01:55;101609.16;;;17.79;100.00
59170;BME280;52474;52.236;5.114;2023-05-11T09:04:22;101595.78;;;17.27;100.00
59170;BME280;52474;52.236;5.114;2023-05-11T09:06:51;101603.41;;;17.13;100.00
59170;BME280;52474;52.236;5.114;2023-05-11T09:09:17;101607.75;;;17.14;100.00
59170;BME280;52474;52.236;5.114;2023-05-11T09:11:46;101596.25;;;17.22;100.00
59170;BME280;52474;52.236;5.114;2023-05-11T09:14:12;101603.44;;;17.22;100.00
59170;BME280;52474;52.236;5.114;2023-05-11T09:16:38;101584.28;;;16.90;100.00
59170;BME280;52474;52.236;5.114;2023-05-11T09:19:04;101605.41;;;16.93;100.00
59170;BME280;52474;52.236;5.114;2023-05-11T09:21:31;101608.72;;;16.78;100.00
59170;BME280;52474;52.236;5.114;2023-05-11T09:23:57;101619.59;;;16.76;100.00
59170;BME280;52474;52.236;5.114;2023-05-11T09:26:26;101619.75;;;16.57;100.00
59170;BME280;52474;52.236;5.114;2023-05-11T09:28:56;101610.03;;;16.56;100.00
59170;BME280;52474;52.236;5.114;2023-05-11T09:31:39;101613.06;;;16.43;100.00
59170;BME280;52474;52.236;5.114;2023-05-11T09:34:20;101605.22;;;16.59;100.00
59170;BME280;52474;52.236;5.114;2023-05-11T09:36:51;101607.91;;;16.77;100.00
59170;BME280;52474;52.236;5.114;2023-05-11T09:39:19;101597.72;;;16.63;100.00
59170;BME280;52474;52.236;5.114;2023-05-11T09:42:10;101613.25;;;16.77;100.00
59170;BME280;52474;52.236;5.114;2023-05-11T09:44:37;101619.56;;;16.58;100.00
59170;BME280;52474;52.236;5.114;2023-05-11T09:47:14;101612.69;;;16.56;100.00
59170;BME280;52474;52.236;5.114;2023-05-11T09:49:41;101612.53;;;16.39;100.00
59170;BME280;52474;52.236;5.114;2023-05-11T09:52:12;101615.59;;;16.44;100.00
59170;BME280;52474;52.236;5.114;2023-05-11T09:54:42;101636.88;;;16.36;100.00
59170;BME280;52474;52.236;5.114;2023-05-11T09:57:28;101630.38;;;16.39;100.00
59170;BME280;52474;52.236;5.114;2023-05-11T09:59:56;101610.50;;;15.96;100.00
59170;BME280;52474;52.236;5.114;2023-05-11T10:02:30;101633.81;;;16.03;100.00
59170;BME280;52474;52.236;5.114;2023-05-11T10:04:58;101615.03;;;15.95;100.00
59170;BME280;52474;52.236;5.114;2023-05-11T10:07:34;101642.41;;;15.97;100.00
59170;BME280;52474;52.236;5.114;2023-05-11T10:10:02;101644.13;;;15.88;100.00
59170;BME280;52474;52.236;5.114;2023-05-11T10:12:29;101613.97;;;15.68;100.00
59170;BME280;52474;52.236;5.114;2023-05-11T10:15:09;101639.53;;;15.81;100.00
59170;BME280;52474;52.236;5.114;2023-05-11T10:17:35;101623.53;;;15.71;100.00
59170;BME280;52474;52.236;5.114;2023-05-11T10:20:03;101645.31;;;15.66;100.00
59170;BME280;52474;52.236;5.114;2023-05-11T10:22:30;101636.59;;;15.64;100.00
59170;BME280;52474;52.236;5.114;2023-05-11T10:24:57;101629.88;;;15.60;100.00
59170;BME280;52474;52.236;5.114;2023-05-11T10:27:23;101622.56;;;15.53;100.00
59170;BME280;52474;52.236;5.114;2023-05-11T10:29:50;101635.22;;;15.60;100.00
59170;BME280;52474;52.236;5.114;2023-05-11T10:32:18;101636.59;;;15.55;100.00
59170;BME280;52474;52.236;5.114;2023-05-11T10:34:45;101641.56;;;15.40;100.00
59170;BME280;52474;52.236;5.114;2023-05-11T10:37:13;101625.84;;;15.37;100.00
59170;BME280;52474;52.236;5.114;2023-05-11T10:39:40;101639.72;;;15.40;100.00
59170;BME280;52474;52.236;5.114;2023-05-11T10:42:42;101607.47;;;15.05;100.00
59170;BME280;52474;52.236;5.114;2023-05-11T10:45:20;101638.66;;;14.94;100.00
59170;BME280;52474;52.236;5.114;2023-05-11T10:50:49;101661.91;;;14.63;100.00
59170;BME280;52474;52.236;5.114;2023-05-11T10:53:45;101632.88;;;14.60;100.00
59170;BME280;52474;52.236;5.114;2023-05-11T11:01:53;101641.44;;;14.83;100.00
59170;BME280;52474;52.236;5.114;2023-05-11T11:04:40;101640.47;;;14.74;100.00
59170;BME280;52474;52.236;5.114;2023-05-11T11:07:06;101649.03;;;14.88;100.00
59170;BME280;52474;52.236;5.114;2023-05-11T11:10:01;101659.81;;;14.67;100.00
59170;BME280;52474;52.236;5.114;2023-05-11T11:12:32;101655.75;;;14.63;100.00
59170;BME280;52474;52.236;5.114;2023-05-11T11:15:05;101646.97;;;14.41;100.00
59170;BME280;52474;52.236;5.114;2023-05-11T11:17:33;101652.16;;;14.43;100.00
59170;BME280;52474;52.236;5.114;2023-05-11T11:20:00;101657.78;;;14.49;100.00
59170;BME280;52474;52.236;5.114;2023-05-11T11:25:04;101650.44;;;14.92;100.00
59170;BME280;52474;52.236;5.114;2023-05-11T11:30:19;101652.00;;;15.23;100.00
59170;BME280;52474;52.236;5.114;2023-05-11T11:32:46;101646.63;;;15.33;100.00
59170;BME280;52474;52.236;5.114;2023-05-11T11:40:38;101635.63;;;15.75;100.00
59170;BME280;52474;52.236;5.114;2023-05-11T11:43:15;101646.16;;;15.57;100.00
59170;BME280;52474;52.236;5.114;2023-05-11T11:46:02;101607.28;;;15.45;100.00
59170;BME280;52474;52.236;5.114;2023-05-11T11:48:30;101636.28;;;15.67;100.00
59170;BME280;52474;52.236;5.114;2023-05-11T11:51:12;101646.50;;;15.92;100.00
59170;BME280;52474;52.236;5.114;2023-05-11T12:01:16;101623.09;;;15.76;100.00
59170;BME280;52474;52.236;5.114;2023-05-11T12:03:43;101629.75;;;15.99;100.00
59170;BME280;52474;52.236;5.114;2023-05-11T12:06:11;101636.56;;;15.84;100.00
59170;BME280;52474;52.236;5.114;2023-05-11T12:08:38;101632.03;;;15.94;100.00
59170;BME280;52474;52.236;5.114;2023-05-11T12:11:05;101642.97;;;16.01;100.00
59170;BME280;52474;52.236;5.114;2023-05-11T12:13:32;101654.50;;;16.01;100.00
59170;BME280;52474;52.236;5.114;2023-05-11T12:16:14;101650.50;;;15.78;100.00
59170;BME280;52474;52.236;5.114;2023-05-11T12:18:41;101646.13;;;15.77;100.00
59170;BME280;52474;52.236;5.114;2023-05-11T12:21:19;101603.34;;;15.49;100.00
59170;BME280;52474;52.236;5.114;2023-05-11T12:23:59;101596.22;;;15.67;100.00
59170;BME280;52474;52.236;5.114;2023-05-11T12:26:26;101646.38;;;15.93;100.00
59170;BME280;52474;52.236;5.114;2023-05-11T12:29:07;101631.88;;;15.96;100.00
59170;BME280;52474;52.236;5.114;2023-05-11T12:31:42;101630.34;;;15.93;100.00
59170;BME280;52474;52.236;5.114;2023-05-11T12:34:18;101641.78;;;16.13;100.00
59170;BME280;52474;52.236;5.114;2023-05-11T12:36:46;101634.44;;;16.25;100.00
59170;BME280;52474;52.236;5.114;2023-05-11T12:41:47;101636.41;;;16.23;100.00
59170;BME280;52474;52.236;5.114;2023-05-11T12:44:15;101608.13;;;16.20;100.00
59170;BME280;52474;52.236;5.114;2023-05-11T12:46:43;101634.19;;;16.36;100.00
59170;BME280;52474;52.236;5.114;2023-05-11T12:49:10;101638.81;;;16.44;100.00
59170;BME280;52474;52.236;5.114;2023-05-11T12:52:17;101637.59;;;16.56;100.00
59170;BME280;52474;52.236;5.114;2023-05-11T12:54:39;101615.53;;;16.26;100.00
59170;BME280;52474;52.236;5.114;2023-05-11T12:57:07;101638.22;;;16.68;100.00
59170;BME280;52474;52.236;5.114;2023-05-11T12:59:35;101644.38;;;16.78;100.00
59170;BME280;52474;52.236;5.114;2023-05-11T13:02:17;101641.13;;;16.57;100.00
59170;BME280;52474;52.236;5.114;2023-05-11T13:04:45;101630.78;;;16.44;100.00
59170;BME280;52474;52.236;5.114;2023-05-11T13:07:11;101637.63;;;16.74;100.00
59170;BME280;52474;52.236;5.114;2023-05-11T13:09:57;101633.94;;;16.75;100.00
59170;BME280;52474;52.236;5.114;2023-05-11T13:12:24;101620.72;;;16.73;100.00
59170;BME280;52474;52.236;5.114;2023-05-11T13:15:06;101641.34;;;16.91;100.00
59170;BME280;52474;52.236;5.114;2023-05-11T13:17:34;101606.78;;;16.80;100.00
59170;BME280;52474;52.236;5.114;2023-05-11T13:22:45;101643.09;;;16.82;100.00
59170;BME280;52474;52.236;5.114;2023-05-11T13:25:14;101630.84;;;16.98;100.00
59170;BME280;52474;52.236;5.114;2023-05-11T13:27:41;101634.34;;;16.98;100.00
59170;BME280;52474;52.236;5.114;2023-05-11T13:30:07;101636.88;;;17.00;100.00